Time;durP1;ratioP1;P1;durP2;ratioP2;P2;SDS_P1;SDS_P2;PMS_P1;PMS_P2;Temp;Humidity;BMP_temperature;BMP_pressure;BME280_temperature;BME280_humidity;BME280_pressure;Samples;Min_cycle;Max_cycle;Signal;HPM_P1;HPM_P2
2021/08/08 00:00:44;;;;;;;2.57;1.10;;;;;;;13.10;100.00;95295.13;5053372;28;20417;-76
2021/08/08 00:03:10;;;;;;;2.45;1.10;;;;;;;13.20;100.00;95298.63;5053418;28;20488;-76
2021/08/08 00:05:35;;;;;;;1.13;0.80;;;;;;;13.28;100.00;95308.44;5051556;28;20433;-76
2021/08/08 00:08:01;;;;;;;3.50;1.10;;;;;;;13.37;100.00;95299.06;5053507;28;20459;-76
2021/08/08 00:10:26;;;;;;;3.40;1.13;;;;;;;13.34;100.00;95305.31;5052144;28;20418;-76
2021/08/08 00:12:52;;;;;;;3.03;1.30;;;;;;;13.44;100.00;95303.63;5053280;28;20516;-76
2021/08/08 00:15:18;;;;;;;2.65;1.20;;;;;;;13.50;100.00;95316.16;5051586;28;20417;-76
2021/08/08 00:17:44;;;;;;;4.10;0.90;;;;;;;13.42;100.00;95304.69;5051753;28;20427;-76
2021/08/08 00:20:12;;;;;;;3.30;1.00;;;;;;;13.46;100.00;95308.69;5051831;28;20446;-77
2021/08/08 00:22:37;;;;;;;2.25;1.40;;;;;;;13.49;100.00;95295.44;5051675;28;20476;-76
2021/08/08 00:25:05;;;;;;;3.70;1.17;;;;;;;13.36;100.00;95297.41;5052014;28;20950;-77
2021/08/08 00:27:31;;;;;;;5.20;2.20;;;;;;;13.18;100.00;95289.28;5052424;28;20421;-76
2021/08/08 00:29:56;;;;;;;3.63;2.90;;;;;;;13.15;100.00;95297.34;5052831;28;20516;-77
2021/08/08 00:32:23;;;;;;;3.20;1.30;;;;;;;13.12;100.00;95295.81;5052564;28;20895;-76
2021/08/08 00:34:50;;;;;;;2.20;1.00;;;;;;;13.17;100.00;95301.47;5052868;28;20421;-76
2021/08/08 00:37:15;;;;;;;2.10;0.90;;;;;;;13.29;100.00;95302.28;5050945;28;20946;-76
2021/08/08 00:39:40;;;;;;;2.08;0.85;;;;;;;13.37;100.00;95293.84;5051708;28;20508;-76
2021/08/08 00:42:06;;;;;;;1.80;1.20;;;;;;;13.29;100.00;95304.88;5052546;28;20428;-76
2021/08/08 00:44:32;;;;;;;1.60;1.00;;;;;;;13.29;100.00;95303.09;5052718;28;20950;-77
2021/08/08 00:46:57;;;;;;;4.00;1.00;;;;;;;13.26;100.00;95302.53;5052522;28;20474;-76
2021/08/08 00:49:23;;;;;;;1.45;0.60;;;;;;;13.15;100.00;95305.13;5052704;28;20417;-76
2021/08/08 00:51:50;;;;;;;1.38;0.80;;;;;;;13.17;100.00;95298.06;5044551;28;20451;-76
2021/08/08 00:54:16;;;;;;;3.70;1.08;;;;;;;13.12;100.00;95303.59;5051238;28;20429;-76
2021/08/08 00:56:42;;;;;;;2.57;1.00;;;;;;;13.05;100.00;95310.25;5051130;28;20470;-76
2021/08/08 00:59:07;;;;;;;4.93;0.80;;;;;;;13.08;100.00;95315.19;5050873;28;20421;-76
2021/08/08 01:01:39;;;;;;;2.70;1.30;;;;;;;13.03;100.00;95306.94;5052446;28;20418;-76
2021/08/08 01:04:07;;;;;;;2.13;0.80;;;;;;;13.04;100.00;95312.00;5050847;28;20444;-76
2021/08/08 01:06:39;;;;;;;6.88;0.80;;;;;;;13.10;100.00;95315.09;5050897;28;20421;-76
2021/08/08 01:09:09;;;;;;;2.53;0.80;;;;;;;13.04;100.00;95314.63;5050924;28;20460;-76
2021/08/08 01:11:35;;;;;;;1.42;0.70;;;;;;;13.07;100.00;95318.75;5050586;28;20516;-76
2021/08/08 01:14:02;;;;;;;1.63;0.80;;;;;;;13.05;100.00;95316.28;5051265;28;20874;-76
2021/08/08 01:16:29;;;;;;;4.03;1.03;;;;;;;13.13;100.00;95320.06;5051901;28;20504;-77
2021/08/08 01:18:56;;;;;;;1.23;0.90;;;;;;;13.22;100.00;95319.31;5034813;28;20444;-76
2021/08/08 01:21:23;;;;;;;7.35;1.00;;;;;;;13.30;100.00;95307.34;5050796;28;20823;-76
2021/08/08 01:23:55;;;;;;;1.85;0.80;;;;;;;13.22;100.00;95320.13;5052083;28;20428;-76
2021/08/08 01:26:21;;;;;;;1.27;0.90;;;;;;;13.26;100.00;95325.94;5050347;28;20432;-76
2021/08/08 01:28:46;;;;;;;2.63;1.00;;;;;;;13.23;100.00;95321.78;5050704;28;20926;-76
2021/08/08 01:31:12;;;;;;;1.53;0.90;;;;;;;13.18;100.00;95328.28;5051673;28;20439;-76
2021/08/08 01:33:37;;;;;;;4.30;1.07;;;;;;;12.99;100.00;95326.34;5050684;28;20449;-76
2021/08/08 01:36:03;;;;;;;1.97;1.00;;;;;;;13.00;100.00;95330.59;5050238;28;20425;-76
2021/08/08 01:38:33;;;;;;;2.72;1.02;;;;;;;12.96;100.00;95329.19;5051562;28;20417;-76
2021/08/08 01:41:02;;;;;;;2.40;0.82;;;;;;;12.88;100.00;95319.38;5051404;28;20505;-76
2021/08/08 01:43:30;;;;;;;3.13;0.70;;;;;;;12.80;100.00;95330.38;5050321;28;20440;-76
2021/08/08 01:46:03;;;;;;;0.70;0.60;;;;;;;12.78;100.00;95337.47;5049424;28;20421;-76
2021/08/08 01:48:30;;;;;;;1.48;0.63;;;;;;;12.77;100.00;95341.03;5050349;28;20457;-76
2021/08/08 01:50:55;;;;;;;0.82;0.60;;;;;;;12.72;100.00;95345.75;5051430;28;20847;-76
2021/08/08 01:53:21;;;;;;;0.95;0.60;;;;;;;12.76;100.00;95336.78;5050239;28;20487;-76
2021/08/08 01:55:46;;;;;;;1.65;0.70;;;;;;;12.71;100.00;95338.06;5050055;28;20428;-76
2021/08/08 01:58:13;;;;;;;2.10;0.70;;;;;;;12.73;100.00;95346.59;5050120;28;20440;-76
2021/08/08 02:00:39;;;;;;;1.75;0.60;;;;;;;12.71;100.00;95344.09;5050636;28;21027;-76
2021/08/08 02:03:05;;;;;;;1.48;0.63;;;;;;;12.68;100.00;95343.50;5051213;28;20425;-76
2021/08/08 02:05:31;;;;;;;1.90;0.70;;;;;;;12.76;100.00;95348.94;5050693;28;20463;-76
2021/08/08 02:07:56;;;;;;;1.08;0.70;;;;;;;12.81;100.00;95341.59;5051147;28;20421;-76
2021/08/08 02:10:22;;;;;;;0.90;0.60;;;;;;;12.93;100.00;95347.59;5051049;28;20428;-76
2021/08/08 02:12:48;;;;;;;3.90;0.75;;;;;;;13.00;100.00;95344.41;5050221;28;20414;-76
2021/08/08 02:15:14;;;;;;;1.80;0.98;;;;;;;13.07;100.00;95342.97;5049521;28;20417;-76
2021/08/08 02:17:41;;;;;;;4.20;0.80;;;;;;;13.12;100.00;95346.97;5049361;28;20421;-76
2021/08/08 02:20:10;;;;;;;1.80;0.70;;;;;;;12.90;100.00;95343.47;5049765;28;20926;-78
2021/08/08 02:22:35;;;;;;;1.48;0.45;;;;;;;12.98;100.00;95342.91;5041939;28;20417;-77
2021/08/08 02:25:01;;;;;;;5.77;0.93;;;;;;;12.94;100.00;95347.50;5050944;28;20421;-77
2021/08/08 02:27:26;;;;;;;1.47;0.60;;;;;;;12.97;100.00;95349.00;5050462;28;20425;-77
2021/08/08 02:29:52;;;;;;;1.33;0.67;;;;;;;12.97;100.00;95359.41;5051076;28;20463;-77
2021/08/08 02:32:19;;;;;;;0.90;0.43;;;;;;;12.97;100.00;95354.22;5051365;28;20421;-78
2021/08/08 02:34:45;;;;;;;3.33;0.75;;;;;;;12.99;100.00;95355.75;5051617;28;20429;-78
2021/08/08 02:37:10;;;;;;;1.80;0.67;;;;;;;13.07;100.00;95361.16;5049822;28;20429;-77
2021/08/08 02:39:35;;;;;;;2.40;0.60;;;;;;;13.01;100.00;95359.03;5051363;28;20424;-77
2021/08/08 02:42:01;;;;;;;1.73;0.60;;;;;;;13.06;100.00;95350.91;5050018;28;20433;-77
2021/08/08 02:44:26;;;;;;;1.30;0.50;;;;;;;12.90;100.00;95348.66;5051520;28;20424;-77
2021/08/08 02:46:52;;;;;;;1.80;0.57;;;;;;;12.75;100.00;95358.50;5051253;28;20984;-78
2021/08/08 02:49:19;;;;;;;1.83;0.67;;;;;;;12.72;100.00;95369.16;5051429;28;20424;-77
2021/08/08 02:51:45;;;;;;;2.20;0.80;;;;;;;12.83;100.00;95369.13;5050928;28;20463;-77
2021/08/08 02:54:14;;;;;;;1.38;0.65;;;;;;;12.90;100.00;95361.66;5051356;28;20449;-77
2021/08/08 02:56:39;;;;;;;1.90;0.77;;;;;;;12.72;100.00;95376.09;5049702;28;20859;-78
2021/08/08 02:59:04;;;;;;;2.08;0.85;;;;;;;12.75;100.00;95379.28;5050154;28;20512;-78
2021/08/08 03:01:30;;;;;;;3.63;0.70;;;;;;;12.65;100.00;95387.94;5051001;28;20468;-77
2021/08/08 03:03:55;;;;;;;1.60;0.70;;;;;;;12.72;100.00;95400.31;5051428;28;20428;-77
2021/08/08 03:06:22;;;;;;;7.33;1.17;;;;;;;12.60;100.00;95396.88;5051046;28;20968;-77
2021/08/08 03:08:47;;;;;;;1.98;0.65;;;;;;;12.64;100.00;95396.66;5050076;28;20417;-78
2021/08/08 03:11:13;;;;;;;0.90;0.50;;;;;;;12.78;100.00;95399.00;5051318;28;20910;-78
2021/08/08 03:13:39;;;;;;;0.93;0.60;;;;;;;12.75;100.00;95392.28;5051448;28;21007;-77
2021/08/08 03:16:04;;;;;;;3.25;0.60;;;;;;;12.71;100.00;95384.84;5049862;28;20425;-77
2021/08/08 03:18:30;;;;;;;3.43;0.70;;;;;;;12.75;100.00;95397.47;5049693;28;20425;-78
2021/08/08 03:20:55;;;;;;;1.40;0.80;;;;;;;12.78;100.00;95388.63;5051084;28;20473;-78
2021/08/08 03:23:22;;;;;;;0.93;0.60;;;;;;;12.79;100.00;95404.09;5050745;28;20461;-77
2021/08/08 03:25:47;;;;;;;5.60;0.77;;;;;;;12.80;100.00;95397.13;5051299;28;20413;-78
2021/08/08 03:28:13;;;;;;;2.60;0.60;;;;;;;12.75;100.00;95399.25;5051354;28;20792;-77
2021/08/08 03:30:39;;;;;;;1.92;0.70;;;;;;;12.66;100.00;95407.75;5049753;28;20429;-76
2021/08/08 03:33:04;;;;;;;1.17;0.60;;;;;;;12.75;100.00;95415.66;5051043;28;20425;-78
2021/08/08 03:35:30;;;;;;;2.03;0.80;;;;;;;12.83;100.00;95413.31;5047830;28;20424;-77
2021/08/08 03:37:55;;;;;;;0.87;0.60;;;;;;;12.86;100.00;95417.44;5050804;28;20440;-77
2021/08/08 03:40:22;;;;;;;1.60;0.70;;;;;;;12.90;100.00;95424.03;5051084;28;20818;-77
2021/08/08 03:42:48;;;;;;;1.77;0.70;;;;;;;12.76;100.00;95421.72;5049423;28;20445;-78
2021/08/08 03:45:13;;;;;;;4.13;0.60;;;;;;;12.66;100.00;95429.38;5050457;28;20988;-77
2021/08/08 03:47:39;;;;;;;1.23;0.63;;;;;;;12.78;100.00;95425.00;5049529;28;20425;-77
2021/08/08 03:50:05;;;;;;;2.37;0.70;;;;;;;12.80;100.00;95429.16;5050889;28;20417;-78
2021/08/08 03:52:30;;;;;;;1.60;0.60;;;;;;;12.83;100.00;95428.91;5049750;28;20417;-77
2021/08/08 03:54:56;;;;;;;1.15;0.60;;;;;;;12.80;100.00;95426.53;5049188;28;20437;-77
2021/08/08 03:57:23;;;;;;;2.83;0.87;;;;;;;12.68;100.00;95427.50;5050177;28;20504;-77
2021/08/08 03:59:48;;;;;;;4.90;0.77;;;;;;;12.74;100.00;95426.19;5050490;28;20421;-77
2021/08/08 04:02:13;;;;;;;2.40;0.87;;;;;;;12.62;100.00;95440.94;5049065;28;20417;-77
2021/08/08 04:04:39;;;;;;;0.70;0.50;;;;;;;12.70;100.00;95448.97;5049093;28;20941;-77
2021/08/08 04:07:04;;;;;;;1.00;0.57;;;;;;;12.77;100.00;95447.56;5049847;28;20429;-78
2021/08/08 04:09:30;;;;;;;5.68;1.05;;;;;;;12.76;100.00;95443.31;5053252;28;20426;-77
2021/08/08 04:11:55;;;;;;;2.92;0.80;;;;;;;12.73;100.00;95443.53;5053159;28;20445;-78
2021/08/08 04:14:22;;;;;;;2.00;0.77;;;;;;;12.67;100.00;95438.81;5053450;28;20417;-78
2021/08/08 04:16:47;;;;;;;1.80;0.90;;;;;;;12.60;100.00;95450.59;5052605;28;20428;-78
2021/08/08 04:19:13;;;;;;;2.00;1.30;;;;;;;12.56;100.00;95464.78;5053229;28;20508;-78
2021/08/08 04:21:38;;;;;;;2.00;0.90;;;;;;;12.67;100.00;95463.97;5053978;28;20425;-78
2021/08/08 04:24:05;;;;;;;3.80;1.00;;;;;;;12.71;100.00;95457.59;5054396;28;20414;-76
2021/08/08 04:26:30;;;;;;;1.17;0.60;;;;;;;12.63;100.00;95462.56;5052641;28;20429;-76
2021/08/08 04:28:56;;;;;;;1.80;0.70;;;;;;;12.47;100.00;95463.72;5054305;28;20432;-78
2021/08/08 04:31:22;;;;;;;3.00;0.70;;;;;;;12.45;100.00;95462.16;5054549;28;20441;-78
2021/08/08 04:33:48;;;;;;;1.77;0.50;;;;;;;12.38;100.00;95471.34;5053341;28;20452;-78
2021/08/08 04:36:13;;;;;;;1.77;0.70;;;;;;;12.28;100.00;95474.66;5054433;28;20443;-78
2021/08/08 04:38:39;;;;;;;2.70;1.00;;;;;;;12.42;100.00;95478.81;5053005;28;20420;-77
2021/08/08 04:41:05;;;;;;;3.38;0.70;;;;;;;12.52;100.00;95474.56;5052634;28;20426;-77
2021/08/08 04:43:30;;;;;;;2.63;0.63;;;;;;;12.60;100.00;95471.41;5052368;28;20520;-76
2021/08/08 04:45:56;;;;;;;5.70;0.80;;;;;;;12.69;100.00;95478.50;5051861;28;20448;-78
2021/08/08 04:48:23;;;;;;;1.93;0.77;;;;;;;12.74;100.00;95481.56;5053644;28;20947;-77
2021/08/08 04:50:49;;;;;;;1.80;0.68;;;;;;;12.80;100.00;95483.72;5053616;28;20429;-77
2021/08/08 04:53:15;;;;;;;0.80;0.40;;;;;;;12.93;100.00;95477.56;5052396;28;20500;-77
2021/08/08 04:55:41;;;;;;;0.50;0.20;;;;;;;13.22;100.00;95478.75;5052969;28;21042;-77
2021/08/08 04:58:06;;;;;;;3.33;0.77;;;;;;;13.31;100.00;95485.88;5051106;28;20500;-77
2021/08/08 05:00:31;;;;;;;2.60;0.60;;;;;;;13.57;100.00;95475.16;5051010;28;20802;-77
2021/08/08 05:02:57;;;;;;;1.17;0.50;;;;;;;13.49;100.00;95487.97;5051344;28;20417;-76
2021/08/08 05:05:24;;;;;;;1.38;0.70;;;;;;;13.64;100.00;95485.94;5051073;28;20449;-76
2021/08/08 05:07:49;;;;;;;1.73;0.70;;;;;;;13.65;100.00;95472.00;5050938;28;20483;-77
2021/08/08 05:10:16;;;;;;;1.37;0.43;;;;;;;13.70;100.00;95475.03;5052163;28;20417;-77
2021/08/08 05:12:42;;;;;;;1.90;0.80;;;;;;;13.69;100.00;95479.41;5051029;28;20421;-77
2021/08/08 05:15:09;;;;;;;1.33;0.55;;;;;;;13.63;100.00;95479.06;5052441;28;20425;-76
2021/08/08 05:17:34;;;;;;;2.83;0.97;;;;;;;13.56;100.00;95487.34;5050492;28;20856;-77
2021/08/08 05:20:00;;;;;;;2.13;0.80;;;;;;;13.44;100.00;95485.72;5052017;28;20421;-77
2021/08/08 05:22:27;;;;;;;2.27;0.90;;;;;;;13.52;100.00;95485.94;5052158;28;20938;-77
2021/08/08 05:24:53;;;;;;;3.07;0.90;;;;;;;13.56;100.00;95489.13;5052237;28;20904;-77
2021/08/08 05:27:18;;;;;;;1.48;0.68;;;;;;;13.53;100.00;95507.59;5051695;28;20445;-76
2021/08/08 05:29:44;;;;;;;2.20;0.90;;;;;;;13.45;100.00;95503.00;5051818;28;20866;-76
2021/08/08 05:32:09;;;;;;;2.77;0.70;;;;;;;13.41;100.00;95501.56;5050608;28;20847;-76
2021/08/08 05:34:35;;;;;;;3.35;1.05;;;;;;;13.41;100.00;95503.34;5051899;28;20524;-75
2021/08/08 05:37:00;;;;;;;4.33;0.90;;;;;;;13.51;100.00;95499.91;5051523;28;20417;-77
2021/08/08 05:39:27;;;;;;;4.23;0.90;;;;;;;13.63;100.00;95500.72;5051592;28;20424;-77
2021/08/08 05:41:52;;;;;;;5.43;0.77;;;;;;;13.68;100.00;95505.53;5051658;28;20818;-76
2021/08/08 05:44:18;;;;;;;2.13;0.87;;;;;;;13.78;100.00;95509.09;5051915;28;20433;-77
2021/08/08 05:46:43;;;;;;;3.10;0.80;;;;;;;14.03;100.00;95516.59;5050236;28;20483;-77
2021/08/08 05:49:09;;;;;;;4.03;1.17;;;;;;;14.01;100.00;95515.03;5050107;28;20417;-77
2021/08/08 05:51:36;;;;;;;4.63;1.10;;;;;;;13.94;100.00;95509.53;5050294;28;20417;-77
2021/08/08 05:54:01;;;;;;;3.03;0.80;;;;;;;14.01;100.00;95507.22;5043429;28;20816;-76
2021/08/08 05:56:28;;;;;;;1.92;0.80;;;;;;;14.04;100.00;95509.59;5030355;28;20473;-76
2021/08/08 05:58:53;;;;;;;2.28;0.60;;;;;;;14.10;100.00;95506.50;5040827;28;20822;-76
2021/08/08 06:01:19;;;;;;;2.72;0.90;;;;;;;14.43;100.00;95502.09;5050786;28;20429;-76
2021/08/08 06:03:44;;;;;;;3.23;1.17;;;;;;;14.53;100.00;95516.03;5050140;28;20490;-76
2021/08/08 06:06:10;;;;;;;2.47;1.00;;;;;;;14.52;100.00;95520.44;5051166;28;20409;-75
2021/08/08 06:08:35;;;;;;;2.00;0.80;;;;;;;14.42;100.00;95521.28;5051639;28;20425;-76
2021/08/08 06:11:01;;;;;;;2.00;0.63;;;;;;;14.62;100.00;95515.28;5047756;28;20511;-77
2021/08/08 06:13:28;;;;;;;1.20;0.80;;;;;;;14.54;100.00;95512.50;5041584;28;20415;-77
2021/08/08 06:15:53;;;;;;;4.80;0.82;;;;;;;14.62;100.00;95520.50;5040734;28;20419;-76
2021/08/08 06:18:18;;;;;;;1.67;0.80;;;;;;;14.46;100.00;95531.34;5050448;28;20981;-76
2021/08/08 06:20:46;;;;;;;2.85;0.70;;;;;;;14.77;100.00;95539.25;5045766;28;22511;-76
2021/08/08 06:23:11;;;;;;;1.87;0.90;;;;;;;15.07;100.00;95533.25;5050493;28;20520;-74
2021/08/08 06:25:36;;;;;;;4.25;1.05;;;;;;;15.21;100.00;95538.13;5050342;28;20527;-76
2021/08/08 06:28:02;;;;;;;2.17;0.90;;;;;;;15.24;100.00;95539.66;5050974;28;20420;-76
2021/08/08 06:30:29;;;;;;;5.57;1.02;;;;;;;15.40;100.00;95516.50;5049044;28;20776;-76
2021/08/08 06:32:55;;;;;;;1.90;0.90;;;;;;;15.38;100.00;95525.44;5049547;28;20417;-76
2021/08/08 06:35:20;;;;;;;10.48;0.93;;;;;;;15.34;100.00;95524.03;5050844;28;20413;-76
2021/08/08 06:37:46;;;;;;;4.73;0.90;;;;;;;15.28;100.00;95530.63;5050456;28;20951;-76
2021/08/08 06:40:12;;;;;;;3.70;1.10;;;;;;;15.41;100.00;95527.78;5050508;28;20452;-76
2021/08/08 06:42:38;;;;;;;2.30;0.93;;;;;;;15.60;100.00;95542.66;5050478;28;20479;-75
2021/08/08 06:45:04;;;;;;;7.10;1.23;;;;;;;15.24;100.00;95545.72;5050501;28;20425;-76
2021/08/08 06:47:31;;;;;;;5.30;0.90;;;;;;;15.10;100.00;95542.63;5049818;28;20903;-76
2021/08/08 06:49:57;;;;;;;3.35;1.17;;;;;;;15.30;100.00;95546.94;5045277;28;20474;-76
2021/08/08 06:52:22;;;;;;;1.80;0.80;;;;;;;15.31;100.00;95543.38;5048940;28;20935;-75
2021/08/08 06:54:48;;;;;;;3.17;1.10;;;;;;;15.21;100.00;95548.56;5049271;28;20448;-76
2021/08/08 06:57:21;;;;;;;2.37;0.90;;;;;;;15.22;100.00;95557.22;5049125;28;20449;-75
2021/08/08 06:59:47;;;;;;;2.10;0.80;;;;;;;15.23;100.00;95551.03;5048768;28;20463;-75
2021/08/08 07:02:12;;;;;;;2.90;1.10;;;;;;;15.10;100.00;95553.88;5049063;28;20449;-76
2021/08/08 07:04:39;;;;;;;3.60;1.20;;;;;;;15.17;100.00;95551.56;5050702;28;20409;-76
2021/08/08 07:07:04;;;;;;;3.00;1.10;;;;;;;15.18;100.00;95555.84;5049242;28;20417;-76
2021/08/08 07:09:30;;;;;;;3.20;1.13;;;;;;;15.00;100.00;95560.81;5050680;28;20413;-75
2021/08/08 07:11:55;;;;;;;3.80;1.10;;;;;;;15.00;100.00;95558.19;5050606;28;20409;-75
2021/08/08 07:14:21;;;;;;;3.00;0.90;;;;;;;15.06;100.00;95562.91;5050558;28;20411;-75
2021/08/08 07:16:46;;;;;;;1.97;0.93;;;;;;;15.22;100.00;95567.66;5048927;28;20919;-75
2021/08/08 07:19:11;;;;;;;4.68;1.20;;;;;;;15.15;100.00;95563.91;5049215;28;20428;-74
2021/08/08 07:21:38;;;;;;;2.83;1.10;;;;;;;15.17;100.00;95560.22;5049202;28;22311;-75
2021/08/08 07:24:04;;;;;;;1.87;1.00;;;;;;;15.33;100.00;95558.91;5049254;28;20907;-76
2021/08/08 07:26:29;;;;;;;2.37;1.03;;;;;;;15.48;100.00;95565.44;5050262;28;20427;-76
2021/08/08 07:28:55;;;;;;;3.47;1.20;;;;;;;15.67;100.00;95559.50;5050444;28;20413;-76
2021/08/08 07:31:20;;;;;;;2.80;1.10;;;;;;;15.85;100.00;95554.47;5036097;28;20422;-77
2021/08/08 07:33:45;;;;;;;4.90;1.30;;;;;;;16.05;100.00;95553.53;5037548;28;20454;-76
2021/08/08 07:36:11;;;;;;;3.40;1.20;;;;;;;16.01;96.16;95560.00;5050429;28;20496;-75
2021/08/08 07:38:38;;;;;;;3.40;1.30;;;;;;;16.31;100.00;95551.22;5050329;28;20416;-76
2021/08/08 07:41:03;;;;;;;4.28;1.27;;;;;;;16.49;96.41;95553.16;5050227;28;20425;-76
2021/08/08 07:43:28;;;;;;;4.50;1.15;;;;;;;16.39;94.51;95550.56;5051027;28;20429;-76
2021/08/08 07:45:54;;;;;;;3.43;1.20;;;;;;;16.68;93.33;95553.16;5053835;28;20425;-77
2021/08/08 07:48:19;;;;;;;3.27;1.00;;;;;;;16.84;92.48;95556.06;5054087;28;20454;-78
2021/08/08 07:50:45;;;;;;;5.13;1.23;;;;;;;16.97;90.11;95561.00;5052834;28;20425;-78
2021/08/08 07:53:10;;;;;;;3.60;1.25;;;;;;;17.19;87.83;95565.06;5052407;28;20803;-78
2021/08/08 07:55:37;;;;;;;2.47;1.03;;;;;;;17.54;90.24;95577.53;5052103;28;20421;-78
2021/08/08 07:58:02;;;;;;;2.33;1.15;;;;;;;17.12;85.85;95567.44;5052519;28;20513;-77
2021/08/08 08:00:28;;;;;;;3.17;1.33;;;;;;;17.27;87.68;95578.28;5054273;28;20845;-77
2021/08/08 08:02:53;;;;;;;5.20;1.13;;;;;;;17.22;88.72;95579.69;5051786;28;20437;-77
2021/08/08 08:05:19;;;;;;;4.80;1.40;;;;;;;16.99;86.44;95576.56;5053636;28;20424;-78
2021/08/08 08:07:44;;;;;;;4.27;1.23;;;;;;;17.25;86.87;95574.16;5053205;28;20829;-78
2021/08/08 08:10:10;;;;;;;4.15;1.10;;;;;;;17.65;84.85;95573.91;5051755;28;20429;-78
2021/08/08 08:12:38;;;;;;;4.25;1.60;;;;;;;17.61;84.38;95573.34;5052155;28;20516;-78
2021/08/08 08:15:04;;;;;;;3.63;1.40;;;;;;;17.93;80.59;95568.69;5052178;28;20940;-78
2021/08/08 08:17:30;;;;;;;2.83;1.23;;;;;;;17.75;78.39;95569.44;5053269;28;20508;-78
2021/08/08 08:19:55;;;;;;;2.17;1.15;;;;;;;17.67;80.35;95575.38;5053529;28;20488;-78
2021/08/08 08:22:21;;;;;;;3.77;1.37;;;;;;;17.63;82.13;95584.50;5053302;28;20414;-79
2021/08/08 08:24:46;;;;;;;3.57;1.20;;;;;;;17.59;81.18;95588.38;5053666;28;20786;-77
2021/08/08 08:27:12;;;;;;;7.68;1.15;;;;;;;17.81;76.49;95579.34;5043403;28;20572;-77
2021/08/08 08:29:39;;;;;;;3.85;1.48;;;;;;;17.87;72.47;95593.66;5045967;28;20471;-77
2021/08/08 08:32:05;;;;;;;4.65;1.33;;;;;;;18.26;72.41;95588.22;5066462;22;20476;-74
2021/08/08 08:34:30;;;;;;;3.17;1.33;;;;;;;18.56;70.39;95585.22;5050216;28;20456;-74
2021/08/08 08:36:55;;;;;;;2.70;1.20;;;;;;;18.56;70.44;95582.59;5047995;28;20429;-74
2021/08/08 08:39:21;;;;;;;3.73;1.20;;;;;;;18.06;70.67;95583.09;5052540;28;20482;-74
2021/08/08 08:41:51;;;;;;;2.37;1.17;;;;;;;17.98;70.13;95590.00;5052935;28;20421;-74
2021/08/08 08:44:17;;;;;;;5.10;1.23;;;;;;;17.77;70.30;95592.91;5052548;28;20449;-74
2021/08/08 08:46:45;;;;;;;3.30;1.30;;;;;;;17.43;71.32;95598.63;5052136;28;21123;-74
2021/08/08 08:49:16;;;;;;;4.07;1.20;;;;;;;17.43;72.04;95603.88;5052184;28;20530;-74
2021/08/08 08:51:49;;;;;;;2.58;0.93;;;;;;;17.40;72.31;95604.97;5051577;28;20445;-74
2021/08/08 08:54:17;;;;;;;2.10;1.20;;;;;;;17.20;73.34;95595.50;5051768;28;20870;-74
2021/08/08 08:56:43;;;;;;;4.13;1.20;;;;;;;17.16;73.26;95589.72;5052366;28;20409;-74
2021/08/08 08:59:10;;;;;;;2.80;1.30;;;;;;;17.17;72.80;95601.88;5052125;28;20938;-75
2021/08/08 09:01:35;;;;;;;2.72;1.30;;;;;;;17.21;71.76;95601.59;5052496;28;20436;-75
2021/08/08 09:04:03;;;;;;;3.43;1.53;;;;;;;17.25;73.03;95603.78;5052481;28;20417;-75
2021/08/08 09:06:29;;;;;;;2.95;1.10;;;;;;;17.50;71.42;95604.09;5052074;28;20823;-75
2021/08/08 09:08:54;;;;;;;2.37;1.27;;;;;;;17.59;69.15;95605.88;5051493;28;20507;-75
2021/08/08 09:11:20;;;;;;;5.13;1.33;;;;;;;17.95;69.15;95595.53;5051016;28;20425;-75
2021/08/08 09:13:48;;;;;;;6.07;1.47;;;;;;;18.12;65.73;95595.59;5052449;28;20432;-74
2021/08/08 09:16:14;;;;;;;6.20;1.40;;;;;;;18.12;68.55;95600.81;5052153;28;20475;-74
2021/08/08 09:18:48;;;;;;;2.67;1.15;;;;;;;18.27;66.31;95609.03;5051149;28;20996;-74
2021/08/08 09:21:15;;;;;;;2.90;1.03;;;;;;;18.31;65.04;95604.31;5052022;28;20421;-75
2021/08/08 09:23:40;;;;;;;3.23;1.40;;;;;;;18.52;67.80;95610.09;5052158;28;20432;-75
2021/08/08 09:26:06;;;;;;;3.53;1.30;;;;;;;18.57;67.48;95605.22;5050385;28;20787;-75
2021/08/08 09:28:31;;;;;;;6.28;1.40;;;;;;;18.65;62.18;95601.03;5051375;28;20421;-74
2021/08/08 09:30:59;;;;;;;3.72;1.48;;;;;;;18.65;64.37;95604.50;5051474;28;20413;-74
2021/08/08 09:33:24;;;;;;;2.40;1.02;;;;;;;18.64;63.37;95608.09;5052077;28;20421;-75
2021/08/08 09:35:52;;;;;;;3.80;1.20;;;;;;;18.41;64.27;95615.56;5051721;28;20405;-74
2021/08/08 09:38:20;;;;;;;5.18;1.08;;;;;;;18.34;65.61;95612.69;5051709;28;20479;-75
2021/08/08 09:40:56;;;;;;;2.08;1.08;;;;;;;18.61;65.92;95605.75;5040329;28;20422;-74
2021/08/08 09:43:25;;;;;;;20.70;1.53;;;;;;;18.52;65.78;95601.41;5050045;28;20628;-74
2021/08/08 09:45:50;;;;;;;4.22;1.30;;;;;;;18.49;63.41;95607.78;5051649;28;20774;-74
2021/08/08 09:48:16;;;;;;;5.47;1.00;;;;;;;18.73;64.46;95616.91;5050557;28;20425;-74
2021/08/08 09:50:44;;;;;;;2.90;1.07;;;;;;;18.90;62.79;95621.28;5051272;28;20428;-73
2021/08/08 09:53:16;;;;;;;2.80;1.27;;;;;;;19.24;62.24;95618.78;5051027;28;20417;-73
2021/08/08 09:55:43;;;;;;;2.15;1.08;;;;;;;19.11;60.33;95618.38;5052531;28;20426;-74
2021/08/08 09:58:17;;;;;;;2.92;1.27;;;;;;;19.21;61.77;95619.09;5071435;28;20920;-74
2021/08/08 10:00:42;;;;;;;2.50;1.08;;;;;;;19.44;61.37;95618.59;5058108;28;20465;-74
2021/08/08 10:03:11;;;;;;;2.35;1.02;;;;;;;19.33;58.90;95617.03;5051664;28;20520;-75
2021/08/08 10:05:38;;;;;;;2.07;1.00;;;;;;;19.55;60.52;95620.97;5048817;28;20422;-75
2021/08/08 10:08:06;;;;;;;3.30;1.20;;;;;;;18.98;59.40;95621.38;5049663;28;20512;-74
2021/08/08 10:10:33;;;;;;;2.65;1.20;;;;;;;18.75;61.92;95625.44;5051139;28;20421;-75
2021/08/08 10:13:13;;;;;;;3.42;1.30;;;;;;;18.57;63.72;95623.59;5049748;28;20504;-75
2021/08/08 10:15:43;;;;;;;5.30;2.03;;;;;;;18.50;64.36;95634.81;5049880;28;20432;-74
2021/08/08 10:18:10;;;;;;;3.85;1.35;;;;;;;18.38;65.00;95634.22;5050183;28;20417;-74
2021/08/08 10:20:36;;;;;;;1.80;1.10;;;;;;;18.32;64.47;95626.94;5050523;28;20419;-75
2021/08/08 10:23:02;;;;;;;4.93;1.40;;;;;;;18.34;65.00;95632.84;5050435;28;20421;-74
2021/08/08 10:25:28;;;;;;;3.22;1.10;;;;;;;18.57;65.46;95626.22;5051963;28;20457;-74
2021/08/08 10:27:54;;;;;;;3.22;1.33;;;;;;;18.79;64.77;95624.16;5050078;28;20861;-74
2021/08/08 10:30:21;;;;;;;2.83;1.13;;;;;;;18.85;62.60;95623.56;5050441;28;20421;-75
2021/08/08 10:32:47;;;;;;;5.33;1.20;;;;;;;18.79;62.06;95624.97;5050327;28;20443;-75
2021/08/08 10:35:15;;;;;;;3.40;1.00;;;;;;;19.02;60.58;95625.34;5049495;28;20955;-74
2021/08/08 10:37:41;;;;;;;3.25;1.25;;;;;;;18.90;61.68;95623.91;5049653;28;20421;-74
2021/08/08 10:40:08;;;;;;;3.20;1.20;;;;;;;18.81;62.02;95616.97;5050096;28;20426;-74
2021/08/08 10:42:40;;;;;;;1.92;0.93;;;;;;;18.70;61.24;95606.69;5049076;28;20421;-74
2021/08/08 10:45:06;;;;;;;4.33;1.20;;;;;;;18.60;61.07;95617.22;5049335;28;20432;-74
2021/08/08 10:47:34;;;;;;;1.63;0.73;;;;;;;18.61;60.93;95616.25;5049479;28;20428;-75
2021/08/08 10:50:07;;;;;;;1.50;0.80;;;;;;;18.35;58.56;95618.78;5047997;28;20786;-74
2021/08/08 10:52:37;;;;;;;4.35;1.00;;;;;;;18.08;60.91;95636.16;5049886;28;20483;-74
2021/08/08 10:55:03;;;;;;;2.50;1.00;;;;;;;17.57;60.08;95629.56;5045462;28;21020;-74
2021/08/08 10:57:40;;;;;;;4.07;1.08;;;;;;;17.46;61.23;95640.22;5050192;28;20422;-74
2021/08/08 11:00:12;;;;;;;4.40;0.85;;;;;;;17.79;61.47;95635.47;5049912;28;20468;-74
2021/08/08 11:02:39;;;;;;;1.95;0.88;;;;;;;17.88;61.24;95639.84;5049731;28;20467;-75
2021/08/08 11:05:11;;;;;;;1.50;0.80;;;;;;;18.18;60.76;95635.31;5049757;28;20429;-75
2021/08/08 11:07:37;;;;;;;2.78;0.95;;;;;;;18.22;62.46;95639.28;5048973;28;20500;-74
2021/08/08 11:10:04;;;;;;;1.73;0.70;;;;;;;17.84;62.73;95641.94;5049723;28;20520;-74
2021/08/08 11:12:31;;;;;;;2.57;1.00;;;;;;;17.74;63.85;95641.13;5050182;28;20431;-74
2021/08/08 11:14:56;;;;;;;1.90;1.00;;;;;;;17.60;64.98;95638.94;5049305;28;20428;-74
2021/08/08 11:17:25;;;;;;;2.53;1.00;;;;;;;17.53;64.33;95646.53;5052235;28;20413;-74
2021/08/08 11:19:52;;;;;;;1.85;0.98;;;;;;;17.69;65.41;95650.34;5054279;28;20424;-74
2021/08/08 11:22:19;;;;;;;3.70;0.90;;;;;;;17.89;64.10;95658.03;5053924;28;20422;-74